Time;durP1;ratioP1;P1;durP2;ratioP2;P2;SDS_P1;SDS_P2;PMS_P1;PMS_P2;Temp;Humidity;BMP_temperature;BMP_pressure;BME280_temperature;BME280_humidity;BME280_pressure;Samples;Min_cycle;Max_cycle;Signal;HPM_P1;HPM_P2
2022/05/16 00:02:22;;;;;;;3.65;0.80;;;;;;;25.31;47.22;100792.59;4999415;28;20026;-74
2022/05/16 00:04:49;;;;;;;0.98;0.85;;;;;;;25.31;47.35;100788.06;4985224;28;20104;-73
2022/05/16 00:07:16;;;;;;;1.40;0.80;;;;;;;25.30;47.53;100785.63;5004280;28;20041;-73
2022/05/16 00:09:41;;;;;;;2.25;1.00;;;;;;;25.30;47.18;100781.13;4998336;28;20030;-74
2022/05/16 00:12:08;;;;;;;1.08;0.80;;;;;;;25.30;47.62;100775.78;4997275;28;20087;-73
2022/05/16 00:14:34;;;;;;;3.05;1.00;;;;;;;25.30;47.44;100783.78;4989916;28;20085;-73
2022/05/16 00:16:59;;;;;;;1.85;0.80;;;;;;;25.29;47.32;100776.81;5008518;28;20021;-73
2022/05/16 00:19:25;;;;;;;1.30;0.98;;;;;;;25.28;47.32;100775.19;4974096;28;20066;-74
2022/05/16 00:21:50;;;;;;;2.53;0.70;;;;;;;25.29;47.45;100774.16;4998398;28;20038;-74
2022/05/16 00:24:15;;;;;;;1.13;0.68;;;;;;;25.28;47.39;100772.53;4988599;28;20025;-73
2022/05/16 00:26:41;;;;;;;2.70;0.80;;;;;;;25.29;47.38;100770.69;5003136;28;20489;-74
2022/05/16 00:29:07;;;;;;;2.85;0.90;;;;;;;25.28;47.26;100772.53;4988035;28;20117;-74
2022/05/16 00:31:32;;;;;;;2.17;1.23;;;;;;;25.28;47.23;100769.06;4986814;28;20471;-74
2022/05/16 00:33:58;;;;;;;3.05;0.90;;;;;;;25.26;47.42;100763.97;4984610;28;20088;-73
2022/05/16 00:36:23;;;;;;;1.23;0.68;;;;;;;25.26;47.53;100769.28;5000258;28;20037;-74
2022/05/16 00:38:50;;;;;;;2.15;0.60;;;;;;;25.25;47.14;100762.34;4992767;28;20023;-74
2022/05/16 00:41:16;;;;;;;0.75;0.75;;;;;;;25.25;47.53;100767.66;5001525;28;20109;-73
2022/05/16 00:43:59;;;;;;;2.38;0.80;;;;;;;25.24;47.57;100760.72;4985514;28;20109;-73
2022/05/16 00:46:29;;;;;;;2.40;0.70;;;;;;;25.26;47.39;100763.16;5002583;28;20077;-73
2022/05/16 00:48:55;;;;;;;1.45;0.60;;;;;;;25.26;47.55;100768.47;4987635;28;20438;-73
2022/05/16 00:51:45;;;;;;;1.13;0.90;;;;;;;25.25;47.42;100766.84;4987234;28;20682;-73
2022/05/16 00:54:17;;;;;;;1.77;0.93;;;;;;;25.25;47.64;100762.34;4984955;28;20475;-73
2022/05/16 00:56:45;;;;;;;1.10;0.77;;;;;;;25.26;47.34;100769.28;4983743;28;20116;-73
2022/05/16 00:59:10;;;;;;;2.47;0.70;;;;;;;25.26;47.58;100763.97;4981151;28;20030;-73
2022/05/16 01:07:28;;;;;;;1.67;0.82;;;;;;;25.25;47.88;100772.19;4952085;28;20042;-73
2022/05/16 01:09:54;;;;;;;1.48;1.00;;;;;;;25.26;47.76;100769.28;4961680;28;20518;-73
2022/05/16 01:12:24;;;;;;;3.63;0.57;;;;;;;25.25;47.89;100759.66;4941979;28;20046;-73
2022/05/16 01:14:53;;;;;;;1.58;0.90;;;;;;;25.25;47.54;100762.34;4943818;28;20043;-74
2022/05/16 01:17:19;;;;;;;3.95;0.80;;;;;;;25.25;47.64;100765.00;4962820;28;20125;-73
2022/05/16 01:19:45;;;;;;;1.33;0.70;;;;;;;25.24;47.51;100766.03;4945072;28;20095;-73
2022/05/16 01:22:31;;;;;;;3.85;0.88;;;;;;;25.24;47.55;100775.91;4946025;28;20047;-75
2022/05/16 01:25:06;;;;;;;1.75;0.60;;;;;;;25.24;47.77;100760.72;4953247;28;20050;-73
2022/05/16 01:27:48;;;;;;;;;;;;;;;25.14;47.82;100765.81;4943106;28;20048;-72
2022/05/16 01:30:18;;;;;;;1.20;0.70;;;;;;;25.17;47.66;100770.69;4959418;28;19942;-73
2022/05/16 01:32:44;;;;;;;2.35;1.23;;;;;;;25.20;47.76;100772.88;4955501;28;20503;-73
2022/05/16 01:35:10;;;;;;;0.90;0.60;;;;;;;25.21;47.63;100771.84;4937774;28;20051;-72
2022/05/16 01:40:19;;;;;;;1.50;0.73;;;;;;;25.20;47.70;100770.22;4951849;28;20090;-73
2022/05/16 01:42:45;;;;;;;3.67;1.00;;;;;;;25.20;47.79;100764.06;4985804;28;20034;-74
2022/05/16 01:45:10;;;;;;;1.95;0.80;;;;;;;25.20;47.71;100764.88;4989916;28;20022;-73
2022/05/16 01:47:35;;;;;;;2.85;0.68;;;;;;;25.20;47.81;100764.88;4990325;28;20061;-74
2022/05/16 01:50:01;;;;;;;1.20;0.82;;;;;;;25.19;47.63;100759.78;4981663;28;20446;-73
2022/05/16 01:52:27;;;;;;;2.67;0.85;;;;;;;25.18;47.92;100756.31;5001886;28;20164;-73
2022/05/16 01:54:52;;;;;;;1.75;0.75;;;;;;;25.17;47.90;100757.34;5000461;28;20445;-73
2022/05/16 01:57:17;;;;;;;1.40;0.50;;;;;;;25.17;47.81;100754.69;4996059;28;20137;-73
2022/05/16 01:59:43;;;;;;;2.55;1.05;;;;;;;25.17;47.78;100754.69;4995345;28;20079;-73
2022/05/16 02:02:09;;;;;;;1.05;0.60;;;;;;;25.16;48.17;100755.72;5006083;28;20026;-74
2022/05/16 02:04:34;;;;;;;1.48;0.98;;;;;;;25.16;47.76;100758.41;4985312;28;20790;-73
2022/05/16 02:07:00;;;;;;;1.45;0.95;;;;;;;25.17;47.97;100769.88;4990395;28;20035;-73
2022/05/16 02:09:25;;;;;;;1.73;0.80;;;;;;;25.16;47.90;100770.91;4990821;28;20125;-74
2022/05/16 02:11:50;;;;;;;1.80;0.90;;;;;;;25.15;47.84;100772.78;4988049;28;20474;-73
2022/05/16 02:14:16;;;;;;;2.17;0.73;;;;;;;25.15;47.72;100778.09;4984976;28;20034;-73
2022/05/16 02:16:41;;;;;;;1.73;0.80;;;;;;;25.13;47.69;100775.66;5001232;28;20052;-73
2022/05/16 02:19:06;;;;;;;3.63;0.60;;;;;;;25.15;47.83;100772.78;5004144;28;20037;-73
2022/05/16 02:27:00;;;;;;;1.15;0.63;;;;;;;25.15;47.53;100772.78;4993969;28;20045;-73
2022/05/16 02:29:25;;;;;;;1.25;0.90;;;;;;;25.17;47.52;100772.53;4999457;28;20034;-74
2022/05/16 02:31:51;;;;;;;3.08;0.70;;;;;;;25.17;47.63;100767.22;5003983;28;20125;-73
2022/05/16 02:34:16;;;;;;;1.42;0.65;;;;;;;25.18;47.40;100774.16;4985692;28;20041;-73
2022/05/16 02:36:42;;;;;;;1.63;0.80;;;;;;;25.19;47.57;100768.59;4995105;28;20065;-73
2022/05/16 02:39:08;;;;;;;1.35;0.80;;;;;;;25.19;47.50;100768.59;4990504;28;20524;-73
2022/05/16 02:41:34;;;;;;;1.40;1.00;;;;;;;25.18;47.65;100764.31;4987295;28;20100;-74
2022/05/16 02:43:59;;;;;;;5.22;1.42;;;;;;;25.18;47.37;100761.66;4989554;28;20427;-74
2022/05/16 02:46:25;;;;;;;1.83;0.85;;;;;;;25.18;47.26;100766.16;4990118;28;20030;-73
2022/05/16 02:48:50;;;;;;;0.98;0.50;;;;;;;25.16;47.72;100769.06;4984319;28;20037;-72
2022/05/16 02:51:15;;;;;;;1.42;0.98;;;;;;;25.16;47.25;100763.72;4982926;28;20081;-73
2022/05/16 02:53:41;;;;;;;2.15;0.68;;;;;;;25.16;47.06;100770.91;4966468;28;20030;-73
2022/05/16 02:56:06;;;;;;;1.10;0.70;;;;;;;25.15;47.50;100770.09;4969564;28;20101;-73
2022/05/16 02:58:32;;;;;;;2.40;1.00;;;;;;;25.13;47.40;100770.34;4967085;28;20027;-73
2022/05/16 03:00:57;;;;;;;1.25;0.80;;;;;;;25.14;47.34;100773.81;4973114;28;20057;-73
2022/05/16 03:03:23;;;;;;;1.00;0.80;;;;;;;25.13;47.52;100774.84;4961145;28;20034;-73
2022/05/16 03:05:49;;;;;;;3.05;0.80;;;;;;;25.11;47.36;100763.63;4968436;28;20030;-73
2022/05/16 03:08:14;;;;;;;2.90;1.10;;;;;;;25.11;47.37;100766.28;4968222;28;20031;-72
2022/05/16 03:10:40;;;;;;;1.63;0.70;;;;;;;25.10;47.28;100768.13;4969015;28;20042;-73
2022/05/16 03:13:05;;;;;;;1.88;1.10;;;;;;;25.10;47.44;100770.00;4961819;28;20045;-73
2022/05/16 03:15:31;;;;;;;1.60;0.80;;;;;;;25.10;47.49;100770.00;4969557;28;20022;-74
2022/05/16 03:17:57;;;;;;;1.10;0.90;;;;;;;25.09;47.46;100771.03;4967136;28;20488;-73
2022/05/16 03:20:23;;;;;;;1.58;0.80;;;;;;;25.09;47.40;100771.03;4964540;28;20093;-73
2022/05/16 03:22:48;;;;;;;1.45;0.85;;;;;;;25.08;47.50;100772.06;4966802;28;20456;-72
2022/05/16 03:25:14;;;;;;;1.67;0.98;;;;;;;25.08;47.52;100770.22;4968751;28;20130;-73
2022/05/16 03:30:15;;;;;;;;;;;;;;;24.99;47.74;100768.16;5145151;23;20061;-73
2022/05/16 03:32:40;;;;;;;1.27;0.70;;;;;;;25.01;47.71;100769.56;5007060;28;20400;-73
2022/05/16 03:35:07;;;;;;;1.92;0.80;;;;;;;25.05;47.49;100768.03;5004545;28;20037;-73
2022/05/16 03:37:32;;;;;;;0.98;0.50;;;;;;;25.07;47.44;100770.47;4993694;28;20035;-73
2022/05/16 03:42:42;;;;;;;1.30;0.60;;;;;;;25.05;47.55;100773.34;5005966;28;20040;-72
2022/05/16 03:45:08;;;;;;;1.63;1.05;;;;;;;25.05;47.47;100767.22;5008313;28;20030;-72
2022/05/16 03:47:33;;;;;;;1.60;0.65;;;;;;;25.05;47.53;100768.03;5007240;28;20113;-73
2022/05/16 03:49:59;;;;;;;2.38;0.88;;;;;;;25.06;47.57;100760.84;4978147;28;20115;-73
2022/05/16 03:52:24;;;;;;;1.50;0.60;;;;;;;25.05;47.39;100761.88;4995693;28;20489;-73
2022/05/16 03:54:49;;;;;;;2.35;0.52;;;;;;;25.06;47.47;100763.50;4990615;28;20113;-73
2022/05/16 03:57:15;;;;;;;1.35;0.57;;;;;;;25.05;47.52;100760.03;4990759;28;20118;-72
2022/05/16 03:59:40;;;;;;;3.03;0.80;;;;;;;25.06;47.47;100768.84;5006650;28;20355;-73
2022/05/16 04:02:05;;;;;;;1.55;0.90;;;;;;;25.06;47.64;100774.16;5009420;28;20088;-72
2022/05/16 04:04:32;;;;;;;1.20;0.70;;;;;;;25.07;47.50;100773.13;4993213;28;20208;-72
2022/05/16 04:06:57;;;;;;;2.60;0.80;;;;;;;25.06;47.45;100764.31;4991791;28;20026;-72
2022/05/16 04:09:23;;;;;;;2.45;0.60;;;;;;;25.07;47.54;100767.78;5004640;28;20069;-73
2022/05/16 04:11:48;;;;;;;1.73;0.70;;;;;;;25.05;47.40;100768.03;4996276;28;20093;-72
2022/05/16 04:14:13;;;;;;;1.85;0.70;;;;;;;25.06;47.30;100776.81;4993767;28;20494;-73
2022/05/16 04:16:39;;;;;;;0.95;0.68;;;;;;;25.05;47.62;100775.19;4989651;28;20033;-73
2022/05/16 04:19:08;;;;;;;3.67;0.70;;;;;;;25.06;47.53;100774.16;5000547;28;20033;-72
2022/05/16 04:21:35;;;;;;;2.25;0.70;;;;;;;25.06;47.75;100774.16;5004159;28;20042;-74
2022/05/16 04:24:01;;;;;;;2.30;0.65;;;;;;;25.05;47.84;100786.69;4989476;28;20046;-72
2022/05/16 04:26:27;;;;;;;6.13;0.90;;;;;;;25.06;48.17;100785.63;4996105;28;20088;-72
2022/05/16 04:28:53;;;;;;;4.32;1.05;;;;;;;25.09;48.59;100785.19;5010731;28;20061;-73
2022/05/16 04:31:18;;;;;;;9.52;3.47;;;;;;;25.16;50.48;100779.72;5026739;28;20052;-72
2022/05/16 04:33:44;;;;;;;3.72;1.92;;;;;;;25.17;50.37;100786.69;5021320;28;20087;-73
2022/05/16 04:36:09;;;;;;;2.67;0.93;;;;;;;25.13;49.78;100783.66;5025880;28;20080;-73
2022/05/16 04:38:34;;;;;;;4.05;0.63;;;;;;;25.10;49.36;100794.78;5028774;28;20045;-72
2022/05/16 04:43:45;;;;;;;4.63;0.95;;;;;;;25.08;48.68;100790.75;5026515;28;20581;-71
2022/05/16 04:46:10;;;;;;;2.95;0.85;;;;;;;25.07;48.41;100792.59;5025429;28;20104;-73
2022/05/16 04:48:35;;;;;;;3.30;0.70;;;;;;;25.06;48.47;100790.16;5028538;28;20029;-71
2022/05/16 04:51:01;;;;;;;6.75;0.98;;;;;;;25.06;48.53;100798.97;5024315;28;20377;-72
2022/05/16 04:53:27;;;;;;;5.80;0.80;;;;;;;25.04;48.61;100797.59;5026241;28;20060;-71
2022/05/16 04:55:53;;;;;;;4.00;0.98;;;;;;;25.03;48.36;100796.78;5021600;28;20140;-71
2022/05/16 04:58:21;;;;;;;3.85;1.20;;;;;;;25.03;48.72;100803.97;5024049;28;20037;-72
2022/05/16 05:00:47;;;;;;;2.67;0.82;;;;;;;25.01;48.73;100798.06;5021188;28;20219;-71
2022/05/16 05:03:12;;;;;;;5.00;0.95;;;;;;;25.00;48.44;100802.59;5013892;28;20116;-71
2022/05/16 05:05:37;;;;;;;2.33;0.75;;;;;;;24.98;48.32;100801.19;5025525;28;20076;-71
2022/05/16 05:08:03;;;;;;;2.75;0.95;;;;;;;24.97;48.15;100797.72;5027083;28;20120;-72
2022/05/16 05:16:14;;;;;;;4.13;1.17;;;;;;;24.87;47.98;100794.78;5027683;28;19928;-72
2022/05/16 05:18:41;;;;;;;2.72;1.02;;;;;;;24.91;47.94;100800.47;5023166;28;20029;-72
2022/05/16 05:21:07;;;;;;;3.22;1.10;;;;;;;24.93;47.74;100801.03;5028205;28;20061;-73
2022/05/16 05:23:34;;;;;;;3.40;1.08;;;;;;;24.94;47.85;100800.00;5024683;28;20365;-74
2022/05/16 05:26:00;;;;;;;3.67;0.82;;;;;;;24.93;47.99;100801.03;5028288;28;20060;-73
2022/05/16 05:28:25;;;;;;;4.38;0.95;;;;;;;24.94;47.84;100802.66;5023039;28;20471;-71
2022/05/16 05:30:50;;;;;;;1.60;0.90;;;;;;;24.92;47.78;100800.22;5025927;28;20028;-71
2022/05/16 05:33:16;;;;;;;1.73;0.77;;;;;;;24.92;47.79;100799.41;5027969;28;20029;-71
2022/05/16 05:35:42;;;;;;;2.58;0.80;;;;;;;24.92;47.64;100799.41;5021949;28;20033;-71
2022/05/16 05:38:09;;;;;;;8.48;0.93;;;;;;;24.94;47.70;100797.34;5025889;28;20021;-71
2022/05/16 05:40:34;;;;;;;1.70;0.90;;;;;;;24.94;47.63;100808.00;5027038;28;20108;-73
2022/05/16 05:43:04;;;;;;;2.13;0.98;;;;;;;24.95;47.68;100815.75;5022611;28;20109;-72
2022/05/16 05:45:29;;;;;;;2.95;0.90;;;;;;;24.96;47.70;100816.59;5007961;28;20485;-71
2022/05/16 05:47:55;;;;;;;2.35;0.80;;;;;;;24.96;47.64;100811.28;5027803;28;20033;-74
2022/05/16 05:50:20;;;;;;;1.45;0.80;;;;;;;24.97;47.80;100819.03;5028023;28;20029;-72
2022/05/16 05:52:46;;;;;;;3.38;0.85;;;;;;;24.97;47.68;100812.91;5023536;28;20094;-71
2022/05/16 05:55:11;;;;;;;1.50;0.80;;;;;;;24.97;47.71;100819.03;5025488;28;20040;-72
2022/05/16 05:57:37;;;;;;;3.15;1.02;;;;;;;24.98;48.01;100809.19;5025391;28;20033;-72
2022/05/16 06:00:05;;;;;;;2.80;1.10;;;;;;;24.98;47.88;100811.84;5025714;28;20029;-72
2022/05/16 06:02:30;;;;;;;1.17;1.00;;;;;;;24.97;47.65;100812.91;5021373;28;20029;-74
2022/05/16 06:04:55;;;;;;;1.38;1.00;;;;;;;24.95;47.69;100810.44;5025477;28;20032;-73
2022/05/16 06:07:21;;;;;;;3.83;1.05;;;;;;;24.93;47.58;100812.50;5025689;28;20473;-73
2022/05/16 06:09:46;;;;;;;2.38;0.90;;;;;;;24.94;47.92;100818.66;5025825;28;20029;-74
2022/05/16 06:12:12;;;;;;;1.85;0.80;;;;;;;24.93;47.74;100817.03;5027242;28;20082;-73
2022/05/16 06:14:37;;;;;;;1.05;0.70;;;;;;;24.91;48.14;100814.59;5027347;28;20041;-73
2022/05/16 06:17:03;;;;;;;1.60;0.98;;;;;;;24.91;48.02;100819.91;5027556;28;20408;-73
2022/05/16 06:19:29;;;;;;;1.75;1.00;;;;;;;24.91;47.91;100808.44;5027509;28;20520;-73
2022/05/16 06:21:54;;;;;;;2.28;0.68;;;;;;;24.89;48.03;100815.88;5027504;28;20111;-74
2022/05/16 06:27:04;;;;;;;3.08;0.93;;;;;;;24.88;47.95;100808.91;5024978;28;20129;-73
2022/05/16 06:29:30;;;;;;;2.53;0.70;;;;;;;24.88;48.02;100814.25;5024871;28;20050;-73
2022/05/16 06:31:56;;;;;;;3.60;1.13;;;;;;;24.87;48.04;100812.63;5030894;28;20084;-74
2022/05/16 06:34:22;;;;;;;2.45;0.80;;;;;;;24.86;48.13;100813.66;5030948;28;20034;-73
2022/05/16 06:36:47;;;;;;;2.47;0.95;;;;;;;24.86;48.26;100816.31;5030649;28;20028;-73
2022/05/16 06:39:13;;;;;;;2.83;0.88;;;;;;;24.86;48.21;100819.00;5030711;28;20443;-73
2022/05/16 06:41:40;;;;;;;3.08;0.70;;;;;;;24.85;48.32;100814.69;5030979;28;20033;-73
2022/05/16 06:44:05;;;;;;;1.45;0.95;;;;;;;24.86;48.24;100816.31;5030719;28;20029;-73
2022/05/16 06:46:31;;;;;;;2.17;0.68;;;;;;;24.86;48.33;100816.31;5030936;28;20036;-74
2022/05/16 06:48:56;;;;;;;2.17;0.77;;;;;;;24.86;48.47;100811.00;5030756;28;20044;-74
2022/05/16 06:51:22;;;;;;;1.35;0.60;;;;;;;24.85;48.40;100815.50;5030775;28;20461;-73
2022/05/16 06:53:48;;;;;;;3.35;0.60;;;;;;;24.86;48.38;100816.31;5030318;28;20033;-74
2022/05/16 06:56:14;;;;;;;2.08;0.85;;;;;;;24.86;48.37;100824.31;5029193;28;20030;-73
2022/05/16 06:58:39;;;;;;;3.90;0.75;;;;;;;24.85;48.60;100820.03;5029888;28;20361;-73
2022/05/16 07:01:05;;;;;;;6.25;1.25;;;;;;;24.86;49.46;100819.00;5028488;28;20111;-73
2022/05/16 07:03:32;;;;;;;2.58;1.10;;;;;;;24.87;49.62;100817.94;5026918;28;20034;-73
2022/05/16 07:05:58;;;;;;;1.85;1.30;;;;;;;24.88;49.78;100815.06;5028925;28;20523;-75
2022/05/16 07:08:24;;;;;;;3.97;1.55;;;;;;;24.92;50.26;100820.72;5026516;28;20040;-75
2022/05/16 07:10:50;;;;;;;8.23;2.90;;;;;;;24.95;50.41;100815.75;5028676;28;20038;-73
2022/05/16 07:13:16;;;;;;;5.13;1.00;;;;;;;24.94;50.42;100813.31;5026520;28;20031;-75
2022/05/16 07:15:43;;;;;;;2.15;0.93;;;;;;;24.92;50.08;100815.41;5031139;28;20036;-76
2022/05/16 07:18:08;;;;;;;4.68;1.15;;;;;;;24.91;50.10;100813.78;5031240;28;20033;-75
2022/05/16 07:20:35;;;;;;;1.98;0.90;;;;;;;24.90;50.45;100815.63;5031971;28;20083;-74
2022/05/16 07:23:01;;;;;;;3.80;0.90;;;;;;;24.90;50.14;100810.31;5031810;28;20044;-75
2022/05/16 07:25:27;;;;;;;4.72;0.73;;;;;;;24.91;50.12;100808.44;5029133;28;20021;-76
2022/05/16 07:27:56;;;;;;;3.85;1.17;;;;;;;24.91;50.12;100811.13;5028165;28;20037;-73
2022/05/16 07:30:23;;;;;;;3.03;1.35;;;;;;;24.91;50.28;100811.13;5031042;28;20473;-73
2022/05/16 07:32:48;;;;;;;4.55;1.10;;;;;;;24.91;50.44;100819.91;5030321;28;20014;-75
2022/05/16 07:35:22;;;;;;;1.90;0.90;;;;;;;24.89;50.47;100811.34;5030532;28;20144;-73
2022/05/16 07:37:48;;;;;;;6.43;1.23;;;;;;;24.90;50.45;100823.63;5028838;28;20017;-72
2022/05/16 07:40:16;;;;;;;4.68;0.90;;;;;;;24.91;50.67;100816.44;5029955;28;20044;-73
2022/05/16 07:42:42;;;;;;;35.92;5.95;;;;;;;24.91;50.76;100813.78;5029665;28;20030;-73
2022/05/16 07:45:08;;;;;;;14.50;3.47;;;;;;;24.90;50.99;100818.31;5024748;28;20032;-74
2022/05/16 07:47:34;;;;;;;4.63;2.20;;;;;;;24.88;50.87;100811.56;5026639;28;20056;-76
2022/05/16 07:50:00;;;;;;;4.28;1.60;;;;;;;24.86;50.71;100811.00;5027838;28;20446;-73
2022/05/16 07:52:27;;;;;;;4.55;1.77;;;;;;;24.84;50.31;100811.22;5029066;28;20022;-73
2022/05/16 07:54:53;;;;;;;5.50;1.40;;;;;;;24.83;50.23;100808.78;5028451;28;20069;-73
2022/05/16 07:57:18;;;;;;;2.17;1.63;;;;;;;24.85;50.37;100809.38;5028517;28;20025;-73
2022/05/16 07:59:46;;;;;;;6.38;2.25;;;;;;;24.86;50.34;100811.00;5026487;28;20083;-73
2022/05/16 08:02:12;;;;;;;2.97;2.30;;;;;;;24.86;50.44;100811.81;5027068;28;20045;-73
2022/05/16 08:04:39;;;;;;;2.97;1.90;;;;;;;24.87;50.65;100812.63;5027100;28;20034;-73
2022/05/16 08:07:05;;;;;;;1.63;1.50;;;;;;;24.89;50.71;100816.69;5027756;28;20477;-73
2022/05/16 08:12:30;;;;;;;1.98;1.35;;;;;;;24.81;49.81;100817.00;5037215;28;20040;-73
2022/05/16 08:14:56;;;;;;;3.72;1.42;;;;;;;24.83;49.59;100811.44;5022731;28;20048;-73
2022/05/16 08:17:22;;;;;;;3.75;1.83;;;;;;;24.84;49.60;100818.41;5027094;28;20471;-74
2022/05/16 08:19:48;;;;;;;5.00;1.70;;;;;;;24.84;49.76;100819.22;5022958;28;20108;-73
2022/05/16 08:22:14;;;;;;;2.20;1.17;;;;;;;24.86;49.61;100822.47;5027074;28;20605;-75
2022/05/16 08:24:40;;;;;;;5.88;1.88;;;;;;;24.87;49.62;100823.28;5026748;28;20025;-72
2022/05/16 08:27:06;;;;;;;12.43;1.55;;;;;;;24.87;49.65;100817.94;5027552;28;20374;-75
2022/05/16 08:29:32;;;;;;;13.88;2.05;;;;;;;24.86;49.69;100819.00;5024469;28;20060;-75
2022/05/16 08:31:58;;;;;;;5.78;1.27;;;;;;;24.85;49.17;100820.84;5036227;28;20541;-72
2022/05/16 08:34:24;;;;;;;8.52;1.20;;;;;;;24.86;49.02;100822.47;5034558;28;20042;-73
2022/05/16 08:42:23;;;;;;;3.78;1.38;;;;;;;24.85;49.23;100828.03;5021700;28;20110;-73
2022/05/16 08:44:48;;;;;;;3.25;1.17;;;;;;;24.86;49.41;100824.31;5013045;28;20132;-72
2022/05/16 08:47:35;;;;;;;2.38;0.85;;;;;;;24.85;49.14;100822.69;5025770;28;20408;-74
2022/05/16 08:50:14;;;;;;;6.25;1.50;;;;;;;24.85;49.34;100825.34;5019376;28;20043;-74
2022/05/16 08:52:57;;;;;;;1.98;0.93;;;;;;;24.87;48.90;100826.75;5024027;28;20113;-74
2022/05/16 08:55:34;;;;;;;2.95;1.05;;;;;;;24.88;48.89;100830.22;5019010;28;20119;-76
2022/05/16 08:58:07;;;;;;;3.55;1.05;;;;;;;24.91;48.44;100832.44;5021504;28;20030;-77
2022/05/16 09:00:51;;;;;;;1.73;1.00;;;;;;;24.88;48.24;100825.72;5029900;28;20029;-73
2022/05/16 09:03:28;;;;;;;1.77;0.70;;;;;;;24.91;48.85;100835.09;5036148;28;20455;-71
2022/05/16 09:05:59;;;;;;;3.33;0.90;;;;;;;24.92;48.14;100842.88;5037436;28;20041;-72
2022/05/16 09:08:46;;;;;;;2.92;1.30;;;;;;;24.93;48.21;100838.34;5036934;28;20128;-71
2022/05/16 09:11:23;;;;;;;1.73;0.80;;;;;;;24.94;48.18;100837.31;5031731;28;20381;-72
2022/05/16 09:13:57;;;;;;;0.98;0.50;;;;;;;24.94;48.42;100839.97;5038127;28;20084;-72
2022/05/16 09:16:47;;;;;;;1.92;0.80;;;;;;;24.94;48.33;100837.31;5037915;28;20112;-75
2022/05/16 09:19:19;;;;;;;1.20;0.88;;;;;;;24.94;48.18;100839.97;5040564;28;20044;-72
2022/05/16 09:22:03;;;;;;;3.00;0.80;;;;;;;24.92;48.30;100847.38;5035614;28;20040;-72
2022/05/16 09:24:45;;;;;;;3.65;0.75;;;;;;;24.92;47.73;100852.72;5032127;28;20469;-76
2022/05/16 09:27:14;;;;;;;1.85;0.82;;;;;;;24.92;48.17;100842.06;5021027;28;20036;-74
2022/05/16 09:29:45;;;;;;;3.60;1.38;;;;;;;24.93;47.87;100836.50;5023246;28;20049;-77
2022/05/16 09:32:31;;;;;;;10.52;1.00;;;;;;;24.93;47.87;100836.50;5020312;28;20033;-77
2022/05/16 09:34:57;;;;;;;3.78;0.90;;;;;;;24.95;47.89;100833.59;5020154;28;20038;-75
2022/05/16 09:37:23;;;;;;;3.35;1.20;;;;;;;24.96;48.05;100833.41;5024618;28;20036;-76
2022/05/16 09:39:53;;;;;;;2.00;0.98;;;;;;;24.96;48.12;100835.25;5023161;28;20384;-76
2022/05/16 09:42:33;;;;;;;5.32;1.30;;;;;;;24.94;48.43;100835.47;5027333;28;20041;-76
2022/05/16 09:45:23;;;;;;;6.35;1.05;;;;;;;24.96;48.52;100827.25;5010839;28;20025;-73
2022/05/16 09:47:50;;;;;;;5.10;1.33;;;;;;;24.97;48.42;100827.03;5027484;28;20033;-75
2022/05/16 09:50:20;;;;;;;5.18;1.45;;;;;;;24.99;48.58;100832.94;5027073;28;20025;-73
2022/05/16 09:52:49;;;;;;;5.80;1.00;;;;;;;25.01;48.81;100836.19;5028247;28;20029;-74
2022/05/16 09:55:34;;;;;;;2.58;1.20;;;;;;;25.02;48.66;100837.00;5027238;28;20116;-77
2022/05/16 09:58:03;;;;;;;1.83;1.10;;;;;;;25.02;48.64;100829.00;5027695;28;20527;-75
2022/05/16 10:00:52;;;;;;;2.88;1.17;;;;;;;25.03;48.78;100827.97;5026044;28;20116;-72
2022/05/16 10:03:31;;;;;;;2.40;1.40;;;;;;;25.07;49.10;100831.75;5022148;28;20061;-71
2022/05/16 10:06:03;;;;;;;3.97;1.20;;;;;;;25.10;48.96;100834.78;5030320;28;20029;-78
2022/05/16 10:08:54;;;;;;;4.38;1.20;;;;;;;25.12;49.13;100830.03;5022884;28;20041;-76
2022/05/16 10:11:24;;;;;;;5.95;1.38;;;;;;;25.16;48.96;100833.06;5027563;28;20045;-72
2022/05/16 10:13:50;;;;;;;6.80;1.40;;;;;;;25.17;48.89;100824.00;5031886;28;20026;-76
2022/05/16 10:16:18;;;;;;;2.63;1.50;;;;;;;25.19;48.79;100831.78;5027187;28;20061;-73
2022/05/16 10:19:01;;;;;;;1.90;1.00;;;;;;;25.20;48.66;100826.22;5030836;28;20065;-74
2022/05/16 10:21:41;;;;;;;2.50;1.05;;;;;;;25.24;48.64;100829.22;5030001;28;20034;-75
2022/05/16 10:24:11;;;;;;;5.57;1.23;;;;;;;25.21;48.65;100819.84;5028206;28;20418;-74
2022/05/16 10:26:44;;;;;;;1.98;1.30;;;;;;;25.17;48.34;100818.69;5031024;28;20120;-73
2022/05/16 10:29:13;;;;;;;2.20;1.15;;;;;;;25.18;48.89;100817.63;5022378;28;20059;-78
2022/05/16 10:34:36;;;;;;;3.28;0.95;;;;;;;25.17;49.20;100813.34;5027366;28;20475;-73
2022/05/16 10:37:03;;;;;;;3.90;1.00;;;;;;;25.19;49.19;100819.25;5029255;28;20025;-73
2022/05/16 10:39:30;;;;;;;3.03;1.55;;;;;;;25.21;48.91;100819.84;5028055;28;20132;-76
2022/05/16 10:42:26;;;;;;;1.70;1.13;;;;;;;25.23;49.09;100816.94;5030038;28;20030;-74
2022/05/16 10:45:02;;;;;;;3.88;1.52;;;;;;;25.24;49.67;100816.72;5022596;28;20064;-74
2022/05/16 10:47:44;;;;;;;3.25;2.30;;;;;;;25.25;49.99;100810.34;5027587;28;20045;-77
2022/05/16 10:50:13;;;;;;;177.15;159.60;;;;;;;25.32;51.10;100812.88;5033883;28;20355;-74
2022/05/16 10:52:44;;;;;;;326.55;293.95;;;;;;;25.39;51.41;100816.25;5033505;28;20037;-77
2022/05/16 10:55:10;;;;;;;181.80;163.45;;;;;;;25.43;51.03;100812.06;5025788;28;20036;-76
2022/05/16 10:58:04;;;;;;;106.47;94.88;;;;;;;25.43;51.37;100807.53;5028551;28;20025;-81
2022/05/16 11:00:43;;;;;;;43.40;38.63;;;;;;;25.53;51.82;100806.94;5034460;28;20044;-78
2022/05/16 11:03:37;;;;;;;18.67;16.60;;;;;;;25.89;51.39;100802.38;5032320;28;20073;-76
2022/05/16 11:06:11;;;;;;;11.15;10.00;;;;;;;26.06;50.96;100804.03;5027451;28;20123;-74
2022/05/16 11:08:54;;;;;;;13.90;9.98;;;;;;;26.20;56.10;100811.75;5027970;28;20485;-72
2022/05/16 11:11:25;;;;;;;9.95;8.00;;;;;;;26.18;55.29;100803.16;5031216;28;20060;-73
2022/05/16 11:14:15;;;;;;;9.30;8.02;;;;;;;26.10;57.12;100804.34;5032584;28;20037;-75
2022/05/16 11:16:41;;;;;;;8.65;6.93;;;;;;;26.23;60.64;100795.25;5020284;28;20041;-75
2022/05/16 11:19:34;;;;;;;10.30;7.53;;;;;;;26.41;63.92;100792.41;5028005;28;20025;-76
2022/05/16 11:22:14;;;;;;;7.47;6.80;;;;;;;26.57;65.49;100794.25;5021269;28;20037;-75
2022/05/16 11:24:44;;;;;;;5.20;3.38;;;;;;;26.70;62.79;100780.59;5032327;28;20048;-75
2022/05/16 11:27:27;;;;;;;3.03;2.78;;;;;;;26.68;59.93;100787.22;5032216;28;20063;-73
2022/05/16 11:29:58;;;;;;;4.47;2.47;;;;;;;26.59;57.51;100784.16;5016227;28;20103;-76
2022/05/16 11:32:49;;;;;;;4.25;2.10;;;;;;;26.42;55.04;100786.00;5027687;28;20300;-72
2022/05/16 11:35:23;;;;;;;3.50;1.63;;;;;;;26.31;53.66;100776.19;5024919;28;20045;-72
2022/05/16 11:38:10;;;;;;;2.58;1.60;;;;;;;26.21;52.94;100773.31;5029105;28;20025;-74
2022/05/16 11:40:48;;;;;;;4.15;1.40;;;;;;;26.16;52.49;100775.88;5018093;28;20199;-75
2022/05/16 11:43:25;;;;;;;5.43;1.60;;;;;;;26.09;51.61;100768.84;5031314;28;20048;-75
2022/05/16 11:46:05;;;;;;;7.50;1.73;;;;;;;26.05;51.38;100766.88;5018334;28;20072;-73
2022/05/16 11:48:49;;;;;;;5.93;1.45;;;;;;;26.05;50.76;100770.34;5026760;28;20041;-74
2022/05/16 11:51:14;;;;;;;9.18;3.92;;;;;;;26.04;51.58;100767.94;5022726;28;20033;-75
2022/05/16 11:53:48;;;;;;;10.60;4.28;;;;;;;26.01;52.21;100755.88;5020286;28;20040;-74
2022/05/16 12:02:20;;;;;;;6.25;2.58;;;;;;;26.03;51.69;100756.44;5026015;28;20167;-71
2022/05/16 12:04:54;;;;;;;6.32;2.80;;;;;;;26.05;51.67;100743.66;5021659;28;20292;-73
2022/05/16 12:07:38;;;;;;;4.93;2.50;;;;;;;26.04;51.81;100750.03;5024940;28;20044;-75
2022/05/16 12:10:09;;;;;;;5.55;2.20;;;;;;;26.00;51.87;100754.25;5020934;28;20037;-75
2022/05/16 12:12:41;;;;;;;2.50;1.60;;;;;;;25.99;51.99;100746.50;5023447;28;20572;-75
2022/05/16 12:15:10;;;;;;;1.75;1.65;;;;;;;26.02;51.81;100746.00;5031687;28;20025;-74
2022/05/16 12:17:37;;;;;;;4.28;1.90;;;;;;;26.04;51.39;100744.72;5022813;28;20048;-76
2022/05/16 12:20:09;;;;;;;4.97;2.55;;;;;;;26.02;51.11;100749.47;5029032;28;20025;-75
2022/05/16 12:22:35;;;;;;;4.03;2.05;;;;;;;26.02;51.02;100740.66;5028133;28;20033;-72